Time;durP1;ratioP1;P1;durP2;ratioP2;P2;SDS_P1;SDS_P2;PMS_P1;PMS_P2;Temp;Humidity;BMP_temperature;BMP_pressure;BME280_temperature;BME280_humidity;BME280_pressure;Samples;Min_cycle;Max_cycle;Signal;HPM_P1;HPM_P2
2023/12/23 00:01:57;;;;;;;;;;;;;;;;;;5011554;28;20068;-50
2023/12/23 00:04:23;;;;;;;;;;;;;;;;;;5010414;28;20382;-48
2023/12/23 00:06:49;;;;;;;;;;;;;;;;;;5011797;28;20398;-48
2023/12/23 00:09:16;;;;;;;;;;;;;;;;;;5011523;28;19924;-49
2023/12/23 00:11:42;;;;;;;;;;;;;;;;;;5011670;28;19917;-47
2023/12/23 00:14:08;;;;;;;;;;;;;;;;;;5014650;28;19920;-49
2023/12/23 00:16:34;;;;;;;;;;;;;;;;;;5014002;28;19983;-49
2023/12/23 00:19:00;;;;;;;;;;;;;;;;;;5015130;28;19913;-47
2023/12/23 00:21:26;;;;;;;;;;;;;;;;;;5013959;28;19960;-48
2023/12/23 00:23:52;;;;;;;;;;;;;;;;;;5014886;28;19914;-47
2023/12/23 00:26:18;;;;;;;;;;;;;;;;;;5015080;28;20004;-51
2023/12/23 00:28:45;;;;;;;;;;;;;;;;;;5004289;28;19976;-49
2023/12/23 00:31:11;;;;;;;;;;;;;;;;;;4994542;28;20398;-50
2023/12/23 00:33:37;;;;;;;;;;;;;;;;;;4995679;28;19922;-50
2023/12/23 00:36:03;;;;;;;;;;;;;;;;;;5000700;28;19920;-48
2023/12/23 00:38:29;;;;;;;;;;;;;;;;;;5006834;28;19918;-48
2023/12/23 00:40:55;;;;;;;;;;;;;;;;;;4978154;28;19967;-50
2023/12/23 00:43:21;;;;;;;;;;;;;;;;;;4995510;28;20386;-50
2023/12/23 00:45:48;;;;;;;;;;;;;;;;;;4999846;28;19996;-50
2023/12/23 00:48:15;;;;;;;;;;;;;;;;;;5013430;28;20381;-49
2023/12/23 00:50:42;;;;;;;;;;;;;;;;;;5011873;28;20403;-49
2023/12/23 00:53:08;;;;;;;;;;;;;;;;;;5013315;28;20297;-50
2023/12/23 00:55:34;;;;;;;;;;;;;;;;;;5014795;28;19913;-48
2023/12/23 00:58:00;;;;;;;;;;;;;;;;;;5010166;28;19914;-48
2023/12/23 01:00:26;;;;;;;;;;;;;;;;;;5002843;28;19913;-47
2023/12/23 01:02:52;;;;;;;;;;;;;;;;;;4996676;28;20349;-47
2023/12/23 01:05:18;;;;;;;;;;;;;;;;;;4995086;28;19917;-49
2023/12/23 01:07:45;;;;;;;;;;;;;;;;;;4994943;28;20335;-48
2023/12/23 01:10:11;;;;;;;;;;;;;;;;;;5006398;28;19924;-47
2023/12/23 01:12:37;;;;;;;;;;;;;;;;;;5011526;28;20392;-50
2023/12/23 01:15:03;;;;;;;;;;;;;;;;;;5012603;28;19937;-48
2023/12/23 01:17:29;;;;;;;;;;;;;;;;;;5004332;28;19913;-49
2023/12/23 01:19:55;;;;;;;;;;;;;;;;;;5003006;28;19960;-48
2023/12/23 01:22:21;;;;;;;;;;;;;;;;;;4994585;28;19991;-47
2023/12/23 01:24:47;;;;;;;;;;;;;;;;;;4992466;28;19919;-47
2023/12/23 01:27:13;;;;;;;;;;;;;;;;;;4994671;28;19914;-48
2023/12/23 01:29:40;;;;;;;;;;;;;;;;;;5006423;28;19921;-51
2023/12/23 01:32:06;;;;;;;;;;;;;;;;;;5009287;28;19913;-52
2023/12/23 01:34:32;;;;;;;;;;;;;;;;;;5013833;28;19920;-52
2023/12/23 01:36:58;;;;;;;;;;;;;;;;;;5001749;28;19972;-52
2023/12/23 01:39:24;;;;;;;;;;;;;;;;;;4999139;28;19921;-50
2023/12/23 01:41:51;;;;;;;;;;;;;;;;;;5012683;28;20011;-49
2023/12/23 01:44:17;;;;;;;;;;;;;;;;;;5012375;28;20008;-51
2023/12/23 01:46:44;;;;;;;;;;;;;;;;;;4999009;28;19956;-48
2023/12/23 01:49:10;;;;;;;;;;;;;;;;;;4996152;28;19921;-48
2023/12/23 01:51:36;;;;;;;;;;;;;;;;;;5002544;28;20437;-48
2023/12/23 01:54:03;;;;;;;;;;;;;;;;;;5004662;28;20009;-49
2023/12/23 01:56:29;;;;;;;;;;;;;;;;;;4957412;28;19934;-49
2023/12/23 01:58:56;;;;;;;;;;;;;;;;;;4987678;28;19909;-49
2023/12/23 02:01:22;;;;;;;;;;;;;;;;;;4985571;28;19914;-48
2023/12/23 02:03:48;;;;;;;;;;;;;;;;;;5004028;28;19967;-48
2023/12/23 02:06:14;;;;;;;;;;;;;;;;;;5011929;28;19970;-52
2023/12/23 02:08:40;;;;;;;;;;;;;;;;;;4979258;28;19961;-51
2023/12/23 02:11:06;;;;;;;;;;;;;;;;;;4995105;28;19960;-53
2023/12/23 02:13:34;;;;;;;;;;;;;;;;;;5001990;28;19933;-52
2023/12/23 02:16:00;;;;;;;;;;;;;;;;;;5004085;28;19914;-49
2023/12/23 02:18:26;;;;;;;;;;;;;;;;;;4992477;28;19914;-52
2023/12/23 02:20:52;;;;;;;;;;;;;;;;;;4993772;28;19972;-49
2023/12/23 02:23:19;;;;;;;;;;;;;;;;;;4993403;28;19914;-50
2023/12/23 02:25:45;;;;;;;;;;;;;;;;;;5003172;28;19913;-53
2023/12/23 02:28:11;;;;;;;;;;;;;;;;;;5010392;28;19920;-51
2023/12/23 02:30:37;;;;;;;;;;;;;;;;;;5008318;28;19922;-51
2023/12/23 02:33:03;;;;;;;;;;;;;;;;;;5001441;28;19914;-51
2023/12/23 02:35:29;;;;;;;;;;;;;;;;;;4993107;28;19918;-51
2023/12/23 02:37:55;;;;;;;;;;;;;;;;;;4996439;28;20137;-48
2023/12/23 02:40:21;;;;;;;;;;;;;;;;;;5011427;28;19914;-48
2023/12/23 02:42:47;;;;;;;;;;;;;;;;;;5011349;28;20389;-51
2023/12/23 02:45:14;;;;;;;;;;;;;;;;;;5011018;28;19929;-48
2023/12/23 02:47:40;;;;;;;;;;;;;;;;;;4994815;28;19943;-50
2023/12/23 02:50:06;;;;;;;;;;;;;;;;;;5011487;28;19924;-47
2023/12/23 02:52:32;;;;;;;;;;;;;;;;;;5011180;28;19910;-51
2023/12/23 02:54:58;;;;;;;;;;;;;;;;;;5007875;28;19921;-50
2023/12/23 02:57:24;;;;;;;;;;;;;;;;;;4996238;28;19917;-50
2023/12/23 02:59:50;;;;;;;;;;;;;;;;;;5000916;28;19913;-48
2023/12/23 03:02:16;;;;;;;;;;;;;;;;;;4993442;28;19996;-48
2023/12/23 03:04:43;;;;;;;;;;;;;;;;;;4998139;28;19924;-47
2023/12/23 03:07:09;;;;;;;;;;;;;;;;;;4992695;28;19926;-51
2023/12/23 03:09:35;;;;;;;;;;;;;;;;;;4993153;28;20309;-53
2023/12/23 03:12:02;;;;;;;;;;;;;;;;;;4993059;28;19965;-50
2023/12/23 03:14:28;;;;;;;;;;;;;;;;;;5012119;28;19913;-51
2023/12/23 03:16:55;;;;;;;;;;;;;;;;;;4995611;28;19961;-52
2023/12/23 03:19:21;;;;;;;;;;;;;;;;;;4992938;28;20377;-49
2023/12/23 03:21:48;;;;;;;;;;;;;;;;;;5002971;28;19980;-51
2023/12/23 03:24:14;;;;;;;;;;;;;;;;;;5009460;28;19976;-54
2023/12/23 03:26:40;;;;;;;;;;;;;;;;;;4999302;28;20402;-49
2023/12/23 03:29:06;;;;;;;;;;;;;;;;;;5009710;28;19963;-53
2023/12/23 03:31:32;;;;;;;;;;;;;;;;;;5007732;28;20370;-53
2023/12/23 03:33:58;;;;;;;;;;;;;;;;;;4992674;28;19914;-53
2023/12/23 03:36:24;;;;;;;;;;;;;;;;;;5004708;28;20309;-51
2023/12/23 03:38:50;;;;;;;;;;;;;;;;;;4999478;28;19918;-50
2023/12/23 03:41:16;;;;;;;;;;;;;;;;;;4993424;28;20073;-52
2023/12/23 03:43:42;;;;;;;;;;;;;;;;;;4992551;28;20024;-52
2023/12/23 03:46:09;;;;;;;;;;;;;;;;;;4992912;28;19957;-50
2023/12/23 03:48:35;;;;;;;;;;;;;;;;;;5002915;28;19920;-49
2023/12/23 03:51:02;;;;;;;;;;;;;;;;;;5004966;28;19913;-49
2023/12/23 03:53:28;;;;;;;;;;;;;;;;;;5002173;28;20382;-52
2023/12/23 03:55:54;;;;;;;;;;;;;;;;;;5014114;28;19914;-49
2023/12/23 03:58:20;;;;;;;;;;;;;;;;;;5014674;28;19971;-50
2023/12/23 04:00:47;;;;;;;;;;;;;;;;;;5013087;28;19921;-49
2023/12/23 04:03:13;;;;;;;;;;;;;;;;;;5005204;28;20286;-51
2023/12/23 04:05:39;;;;;;;;;;;;;;;;;;4994833;28;20333;-48
2023/12/23 04:08:05;;;;;;;;;;;;;;;;;;4996278;28;19920;-50
2023/12/23 04:10:31;;;;;;;;;;;;;;;;;;4995838;28;20336;-48
2023/12/23 04:12:57;;;;;;;;;;;;;;;;;;5009182;28;20401;-50
2023/12/23 04:15:23;;;;;;;;;;;;;;;;;;4978839;28;20397;-48
2023/12/23 04:17:49;;;;;;;;;;;;;;;;;;4994789;28;20012;-49
2023/12/23 04:20:15;;;;;;;;;;;;;;;;;;4994952;28;19910;-49
2023/12/23 04:22:47;;;;;;;;;;;;;;;;;;5014210;28;20330;-48
2023/12/23 04:25:13;;;;;;;;;;;;;;;;;;5012231;28;19975;-52
2023/12/23 04:27:39;;;;;;;;;;;;;;;;;;4989507;28;19913;-49
2023/12/23 04:30:06;;;;;;;;;;;;;;;;;;5000936;28;19918;-50
2023/12/23 04:32:32;;;;;;;;;;;;;;;;;;5014144;28;19932;-47
2023/12/23 04:34:59;;;;;;;;;;;;;;;;;;5000212;28;20199;-48
2023/12/23 04:37:26;;;;;;;;;;;;;;;;;;4994451;28;19909;-53
2023/12/23 04:39:53;;;;;;;;;;;;;;;;;;4995599;28;20382;-48
2023/12/23 04:42:19;;;;;;;;;;;;;;;;;;4994066;28;19914;-52
2023/12/23 04:44:45;;;;;;;;;;;;;;;;;;5000940;28;20025;-49
2023/12/23 04:47:11;;;;;;;;;;;;;;;;;;4999034;28;20381;-48
2023/12/23 04:49:38;;;;;;;;;;;;;;;;;;5006396;28;19917;-48
2023/12/23 04:52:04;;;;;;;;;;;;;;;;;;4987988;28;19938;-50
2023/12/23 04:54:31;;;;;;;;;;;;;;;;;;5014777;28;19918;-48
2023/12/23 04:56:57;;;;;;;;;;;;;;;;;;5013493;28;19910;-47
2023/12/23 04:59:23;;;;;;;;;;;;;;;;;;5013494;28;19914;-47
2023/12/23 05:01:49;;;;;;;;;;;;;;;;;;4997449;28;19910;-47
2023/12/23 05:04:15;;;;;;;;;;;;;;;;;;5013639;28;19956;-51
2023/12/23 05:06:41;;;;;;;;;;;;;;;;;;5013436;28;20366;-47
2023/12/23 05:09:07;;;;;;;;;;;;;;;;;;5014844;28;19923;-48
2023/12/23 05:11:33;;;;;;;;;;;;;;;;;;4997114;28;19913;-47
2023/12/23 05:13:59;;;;;;;;;;;;;;;;;;5014670;28;19936;-51
2023/12/23 05:16:25;;;;;;;;;;;;;;;;;;5014572;28;20354;-48
2023/12/23 05:18:51;;;;;;;;;;;;;;;;;;5013490;28;19917;-48
2023/12/23 05:21:17;;;;;;;;;;;;;;;;;;5013416;28;19932;-47
2023/12/23 05:23:43;;;;;;;;;;;;;;;;;;5013227;28;19913;-49
2023/12/23 05:26:09;;;;;;;;;;;;;;;;;;5014303;28;19913;-47
2023/12/23 05:28:36;;;;;;;;;;;;;;;;;;5013003;28;19914;-47
2023/12/23 05:31:02;;;;;;;;;;;;;;;;;;5013147;28;20283;-50
2023/12/23 05:33:28;;;;;;;;;;;;;;;;;;5014374;28;19949;-47
2023/12/23 05:35:54;;;;;;;;;;;;;;;;;;5012874;28;19967;-50
2023/12/23 05:38:20;;;;;;;;;;;;;;;;;;5014269;28;19917;-48
2023/12/23 05:40:46;;;;;;;;;;;;;;;;;;5014098;28;20008;-48
2023/12/23 05:43:12;;;;;;;;;;;;;;;;;;5014105;28;20603;-47
2023/12/23 05:45:38;;;;;;;;;;;;;;;;;;5014078;28;19914;-48
2023/12/23 05:48:04;;;;;;;;;;;;;;;;;;5014118;28;20555;-50
2023/12/23 05:50:30;;;;;;;;;;;;;;;;;;5014016;28;19917;-47
2023/12/23 05:52:56;;;;;;;;;;;;;;;;;;5012688;28;19956;-50
2023/12/23 05:55:22;;;;;;;;;;;;;;;;;;5013757;28;20372;-50
2023/12/23 05:57:48;;;;;;;;;;;;;;;;;;5013884;28;19921;-52
2023/12/23 06:00:15;;;;;;;;;;;;;;;;;;5013929;28;19909;-49
2023/12/23 06:02:41;;;;;;;;;;;;;;;;;;5013782;28;19968;-51
2023/12/23 06:05:07;;;;;;;;;;;;;;;;;;5013580;28;19909;-52
2023/12/23 06:07:34;;;;;;;;;;;;;;;;;;5012530;28;19964;-52
2023/12/23 06:10:00;;;;;;;;;;;;;;;;;;5011908;28;20468;-50
2023/12/23 06:12:26;;;;;;;;;;;;;;;;;;5013546;28;19913;-48
2023/12/23 06:14:56;;;;;;;;;;;;;;;;;;5013503;28;19909;-51
2023/12/23 06:17:22;;;;;;;;;;;;;;;;;;5012475;28;19913;-48
2023/12/23 06:19:48;;;;;;;;;;;;;;;;;;5013502;28;19917;-51
2023/12/23 06:22:14;;;;;;;;;;;;;;;;;;5013304;28;20367;-48
2023/12/23 06:24:40;;;;;;;;;;;;;;;;;;5013306;28;19916;-47
2023/12/23 06:27:06;;;;;;;;;;;;;;;;;;4995835;28;19913;-48
2023/12/23 06:29:32;;;;;;;;;;;;;;;;;;5013373;28;19914;-48
2023/12/23 06:31:59;;;;;;;;;;;;;;;;;;5013381;28;19952;-48
2023/12/23 06:34:25;;;;;;;;;;;;;;;;;;5013022;28;19910;-49
2023/12/23 06:36:51;;;;;;;;;;;;;;;;;;5012088;28;19968;-53
2023/12/23 06:39:17;;;;;;;;;;;;;;;;;;5013339;28;20011;-53
2023/12/23 06:41:45;;;;;;;;;;;;;;;;;;5013222;28;19913;-51
2023/12/23 06:44:11;;;;;;;;;;;;;;;;;;5013081;28;19987;-49
2023/12/23 06:46:37;;;;;;;;;;;;;;;;;;5012915;28;20370;-49
2023/12/23 06:49:03;;;;;;;;;;;;;;;;;;4998224;28;19920;-49
2023/12/23 06:51:29;;;;;;;;;;;;;;;;;;4993340;28;20009;-49
2023/12/23 06:53:55;;;;;;;;;;;;;;;;;;4993407;28;19945;-48
2023/12/23 06:56:22;;;;;;;;;;;;;;;;;;4993253;28;20571;-50
2023/12/23 06:58:48;;;;;;;;;;;;;;;;;;4993377;28;19913;-50
2023/12/23 07:01:14;;;;;;;;;;;;;;;;;;4993196;28;20428;-48
2023/12/23 07:03:40;;;;;;;;;;;;;;;;;;4991908;28;19914;-46
2023/12/23 07:06:06;;;;;;;;;;;;;;;;;;4992903;28;20361;-48
2023/12/23 07:08:34;;;;;;;;;;;;;;;;;;4991738;28;19956;-48
2023/12/23 07:11:00;;;;;;;;;;;;;;;;;;4992322;28;20287;-49
2023/12/23 07:13:26;;;;;;;;;;;;;;;;;;4991407;28;20547;-46
2023/12/23 07:15:52;;;;;;;;;;;;;;;;;;4992938;28;19914;-47
2023/12/23 07:18:18;;;;;;;;;;;;;;;;;;4992919;28;19917;-49
2023/12/23 07:20:46;;;;;;;;;;;;;;;;;;4992737;28;20474;-51
2023/12/23 07:23:12;;;;;;;;;;;;;;;;;;4992205;28;19910;-50
2023/12/23 07:25:38;;;;;;;;;;;;;;;;;;4991513;28;19914;-49
2023/12/23 07:28:04;;;;;;;;;;;;;;;;;;4992937;28;19909;-47
2023/12/23 07:30:30;;;;;;;;;;;;;;;;;;4992780;28;19922;-47
2023/12/23 07:32:56;;;;;;;;;;;;;;;;;;4992718;28;20405;-48
2023/12/23 07:35:22;;;;;;;;;;;;;;;;;;4992509;28;19920;-49
2023/12/23 07:37:48;;;;;;;;;;;;;;;;;;4991782;28;19910;-54
2023/12/23 07:40:14;;;;;;;;;;;;;;;;;;4992801;28;19937;-50
2023/12/23 07:42:40;;;;;;;;;;;;;;;;;;4992179;28;20272;-56
2023/12/23 07:45:06;;;;;;;;;;;;;;;;;;4992664;28;20306;-54
2023/12/23 07:47:32;;;;;;;;;;;;;;;;;;4992748;28;19917;-54
2023/12/23 07:49:58;;;;;;;;;;;;;;;;;;4992603;28;20377;-52
2023/12/23 07:52:24;;;;;;;;;;;;;;;;;;4992584;28;19914;-51
2023/12/23 07:54:52;;;;;;;;;;;;;;;;;;4992517;28;20302;-51
2023/12/23 07:57:18;;;;;;;;;;;;;;;;;;4992526;28;20405;-51
2023/12/23 07:59:45;;;;;;;;;;;;;;;;;;4992634;28;19960;-50
2023/12/23 08:02:11;;;;;;;;;;;;;;;;;;4992353;28;19910;-53
2023/12/23 08:04:37;;;;;;;;;;;;;;;;;;4992433;28;20417;-50
2023/12/23 08:07:03;;;;;;;;;;;;;;;;;;4991393;28;20015;-54
2023/12/23 08:09:29;;;;;;;;;;;;;;;;;;4992364;28;19918;-50
2023/12/23 08:11:55;;;;;;;;;;;;;;;;;;4992351;28;20001;-48
2023/12/23 08:14:21;;;;;;;;;;;;;;;;;;4992396;28;19921;-50
2023/12/23 08:16:47;;;;;;;;;;;;;;;;;;4992181;28;19910;-50
2023/12/23 08:19:13;;;;;;;;;;;;;;;;;;4992475;28;20553;-52
2023/12/23 08:21:39;;;;;;;;;;;;;;;;;;4992436;28;19909;-52
2023/12/23 08:24:05;;;;;;;;;;;;;;;;;;4992322;28;19914;-54
2023/12/23 08:26:31;;;;;;;;;;;;;;;;;;4992087;28;20003;-54
2023/12/23 08:28:58;;;;;;;;;;;;;;;;;;4992356;28;20012;-50
2023/12/23 08:31:24;;;;;;;;;;;;;;;;;;4992174;28;19957;-52
2023/12/23 08:33:50;;;;;;;;;;;;;;;;;;4993334;28;19917;-48
2023/12/23 08:36:16;;;;;;;;;;;;;;;;;;4995654;28;20393;-50
2023/12/23 08:38:42;;;;;;;;;;;;;;;;;;4995831;28;19913;-58
2023/12/23 08:41:08;;;;;;;;;;;;;;;;;;4994600;28;19909;-51
2023/12/23 08:43:34;;;;;;;;;;;;;;;;;;4995631;28;19965;-49
2023/12/23 08:46:00;;;;;;;;;;;;;;;;;;4994206;28;20334;-48
2023/12/23 08:48:26;;;;;;;;;;;;;;;;;;4995638;28;19941;-51
2023/12/23 08:50:53;;;;;;;;;;;;;;;;;;4995751;28;19975;-52
2023/12/23 08:53:20;;;;;;;;;;;;;;;;;;4994225;28;19921;-52
2023/12/23 08:55:46;;;;;;;;;;;;;;;;;;4995468;28;19910;-51
2023/12/23 08:58:12;;;;;;;;;;;;;;;;;;4995440;28;20298;-52
2023/12/23 09:00:38;;;;;;;;;;;;;;;;;;4995287;28;19910;-53
2023/12/23 09:03:04;;;;;;;;;;;;;;;;;;4995404;28;20012;-51
2023/12/23 09:05:30;;;;;;;;;;;;;;;;;;4995215;28;20374;-53
2023/12/23 09:07:56;;;;;;;;;;;;;;;;;;4993991;28;19914;-52
2023/12/23 09:10:22;;;;;;;;;;;;;;;;;;4993686;28;19920;-55
2023/12/23 09:12:48;;;;;;;;;;;;;;;;;;4993931;28;19914;-51
2023/12/23 09:15:14;;;;;;;;;;;;;;;;;;4994920;28;20290;-51
2023/12/23 09:17:40;;;;;;;;;;;;;;;;;;4995157;28;19918;-53
2023/12/23 09:20:06;;;;;;;;;;;;;;;;;;4995005;28;19916;-52
2023/12/23 09:22:33;;;;;;;;;;;;;;;;;;4994969;28;20298;-50
2023/12/23 09:24:59;;;;;;;;;;;;;;;;;;4993724;28;20000;-50
2023/12/23 09:27:26;;;;;;;;;;;;;;;;;;4995050;28;19925;-53
2023/12/23 09:29:53;;;;;;;;;;;;;;;;;;4993556;28;20063;-50
2023/12/23 09:32:19;;;;;;;;;;;;;;;;;;4994735;28;19914;-53
2023/12/23 09:34:45;;;;;;;;;;;;;;;;;;4994673;28;20004;-53
2023/12/23 09:37:11;;;;;;;;;;;;;;;;;;4994781;28;20298;-49
2023/12/23 09:39:37;;;;;;;;;;;;;;;;;;4994736;28;20363;-50
2023/12/23 09:42:03;;;;;;;;;;;;;;;;;;4993297;28;19921;-49
2023/12/23 09:44:29;;;;;;;;;;;;;;;;;;4994007;28;20375;-51
2023/12/23 09:46:55;;;;;;;;;;;;;;;;;;4992604;28;19953;-49
2023/12/23 09:49:21;;;;;;;;;;;;;;;;;;4993579;28;20012;-50
2023/12/23 09:51:47;;;;;;;;;;;;;;;;;;4993190;28;19914;-52
2023/12/23 09:54:13;;;;;;;;;;;;;;;;;;4994324;28;19964;-54
2023/12/23 09:56:40;;;;;;;;;;;;;;;;;;4993976;28;19997;-49
2023/12/23 09:59:06;;;;;;;;;;;;;;;;;;4994036;28;20346;-50
2023/12/23 10:01:32;;;;;;;;;;;;;;;;;;4994194;28;19914;-50
2023/12/23 10:03:58;;;;;;;;;;;;;;;;;;4994203;28;19916;-52
2023/12/23 10:06:25;;;;;;;;;;;;;;;;;;4993967;28;20387;-49
2023/12/23 10:08:51;;;;;;;;;;;;;;;;;;4994026;28;20366;-50
2023/12/23 10:11:17;;;;;;;;;;;;;;;;;;4993967;28;19921;-48
2023/12/23 10:13:43;;;;;;;;;;;;;;;;;;4993755;28;19949;-54
2023/12/23 10:16:09;;;;;;;;;;;;;;;;;;4993692;28;19920;-54
2023/12/23 10:18:35;;;;;;;;;;;;;;;;;;4992693;28;19932;-53
2023/12/23 10:21:01;;;;;;;;;;;;;;;;;;4993756;28;19914;-52
2023/12/23 10:23:27;;;;;;;;;;;;;;;;;;4993671;28;19917;-54
2023/12/23 10:25:53;;;;;;;;;;;;;;;;;;4993585;28;20056;-53
2023/12/23 10:28:19;;;;;;;;;;;;;;;;;;4993636;28;20396;-51
2023/12/23 10:30:45;;;;;;;;;;;;;;;;;;4993753;28;19925;-52
2023/12/23 10:33:11;;;;;;;;;;;;;;;;;;4993530;28;19910;-53
2023/12/23 10:35:38;;;;;;;;;;;;;;;;;;4993395;28;19953;-51
2023/12/23 10:38:04;;;;;;;;;;;;;;;;;;4993569;28;19909;-52
2023/12/23 10:40:30;;;;;;;;;;;;;;;;;;4992097;28;20275;-56
2023/12/23 10:42:58;;;;;;;;;;;;;;;;;;5002589;23;20088;-49
2023/12/23 10:45:24;;;;;;;;;;;;;;;;;;5014585;28;19959;-49
2023/12/23 10:47:50;;;;;;;;;;;;;;;;;;5031485;28;20373;-49
2023/12/23 10:50:16;;;;;;;;;;;;;;;;;;5032583;28;19928;-49
2023/12/23 10:52:42;;;;;;;;;;;;;;;;;;5032637;28;19909;-49
2023/12/23 10:55:08;;;;;;;;;;;;;;;;;;5031232;28;19913;-50
2023/12/23 10:57:34;;;;;;;;;;;;;;;;;;5031143;28;19950;-49
2023/12/23 11:00:00;;;;;;;;;;;;;;;;;;5032735;28;20281;-50
2023/12/23 11:02:26;;;;;;;;;;;;;;;;;;5031267;28;19916;-50
2023/12/23 11:04:54;;;;;;;;;;;;;;;;;;5030942;28;20388;-49
2023/12/23 11:07:20;;;;;;;;;;;;;;;;;;5032514;28;20036;-49
2023/12/23 11:09:46;;;;;;;;;;;;;;;;;;5032095;28;20355;-49
2023/12/23 11:12:12;;;;;;;;;;;;;;;;;;5032243;28;19959;-50
2023/12/23 11:14:38;;;;;;;;;;;;;;;;;;5032184;28;19913;-50
2023/12/23 11:17:04;;;;;;;;;;;;;;;;;;5031289;28;19959;-50
2023/12/23 11:19:30;;;;;;;;;;;;;;;;;;5032357;28;19917;-48
2023/12/23 11:21:56;;;;;;;;;;;;;;;;;;5032220;28;19917;-49
2023/12/23 11:24:22;;;;;;;;;;;;;;;;;;5032041;28;19913;-51
2023/12/23 11:26:52;;;;;;;;;;;;;;;;;;5032240;28;20023;-49
2023/12/23 11:29:21;;;;;;;;;;;;;;;;;;5030897;28;19923;-50
2023/12/23 11:31:47;;;;;;;;;;;;;;;;;;5031071;28;20289;-51
2023/12/23 11:34:13;;;;;;;;;;;;;;;;;;5032229;28;19913;-50
2023/12/23 11:36:39;;;;;;;;;;;;;;;;;;5032165;28;19916;-48
2023/12/23 11:39:05;;;;;;;;;;;;;;;;;;5031030;28;19913;-51
2023/12/23 11:41:31;;;;;;;;;;;;;;;;;;5030945;28;19910;-48
2023/12/23 11:43:57;;;;;;;;;;;;;;;;;;5031957;28;19927;-48
2023/12/23 11:46:23;;;;;;;;;;;;;;;;;;5032216;28;19917;-47
2023/12/23 11:48:49;;;;;;;;;;;;;;;;;;5023577;28;19920;-50
2023/12/23 11:51:15;;;;;;;;;;;;;;;;;;5012280;28;20286;-51
2023/12/23 11:53:41;;;;;;;;;;;;;;;;;;5018620;28;19917;-49
2023/12/23 11:56:07;;;;;;;;;;;;;;;;;;5017737;28;20382;-47
2023/12/23 11:58:34;;;;;;;;;;;;;;;;;;5012451;28;19913;-47
2023/12/23 12:01:00;;;;;;;;;;;;;;;;;;5020318;28;19917;-47
2023/12/23 12:03:26;;;;;;;;;;;;;;;;;;5014627;28;19913;-49
2023/12/23 12:05:52;;;;;;;;;;;;;;;;;;5016480;28;19936;-49
2023/12/23 12:08:18;;;;;;;;;;;;;;;;;;5013862;28;19913;-51
2023/12/23 12:10:44;;;;;;;;;;;;;;;;;;5021094;28;19918;-49
2023/12/23 12:13:10;;;;;;;;;;;;;;;;;;5015883;28;19960;-48
2023/12/23 12:15:36;;;;;;;;;;;;;;;;;;5023534;28;19908;-51
2023/12/23 12:18:02;;;;;;;;;;;;;;;;;;5033730;28;20305;-49
2023/12/23 12:20:28;;;;;;;;;;;;;;;;;;5018996;28;19914;-52
2023/12/23 12:22:54;;;;;;;;;;;;;;;;;;5014060;28;20333;-48
2023/12/23 12:25:20;;;;;;;;;;;;;;;;;;5015157;28;19913;-48
2023/12/23 12:27:46;;;;;;;;;;;;;;;;;;5015392;28;20008;-49
2023/12/23 12:30:12;;;;;;;;;;;;;;;;;;5016256;28;19928;-49
2023/12/23 12:32:38;;;;;;;;;;;;;;;;;;5024603;28;19952;-47
2023/12/23 12:35:06;;;;;;;;;;;;;;;;;;5032693;28;19960;-48
2023/12/23 12:37:32;;;;;;;;;;;;;;;;;;5032601;28;19917;-48
2023/12/23 12:39:58;;;;;;;;;;;;;;;;;;5031688;28;20000;-52
2023/12/23 12:42:25;;;;;;;;;;;;;;;;;;5014807;28;19918;-50
2023/12/23 12:44:52;;;;;;;;;;;;;;;;;;5020283;28;20142;-48
2023/12/23 12:47:18;;;;;;;;;;;;;;;;;;5015103;28;19920;-49
2023/12/23 12:49:45;;;;;;;;;;;;;;;;;;5024397;28;19917;-48
2023/12/23 12:52:11;;;;;;;;;;;;;;;;;;5032305;28;19939;-49
2023/12/23 12:54:37;;;;;;;;;;;;;;;;;;5024221;28;19921;-49
2023/12/23 12:57:04;;;;;;;;;;;;;;;;;;5013465;28;19921;-52
2023/12/23 12:59:30;;;;;;;;;;;;;;;;;;5012215;28;19951;-50
2023/12/23 13:01:56;;;;;;;;;;;;;;;;;;5016123;28;19936;-50
2023/12/23 13:04:22;;;;;;;;;;;;;;;;;;5011269;28;20008;-51
2023/12/23 13:06:48;;;;;;;;;;;;;;;;;;5013317;28;19920;-49
2023/12/23 13:09:14;;;;;;;;;;;;;;;;;;5028771;28;20024;-48
2023/12/23 13:11:40;;;;;;;;;;;;;;;;;;5023591;28;19922;-48
2023/12/23 13:14:07;;;;;;;;;;;;;;;;;;5013128;28;19917;-51
2023/12/23 13:16:33;;;;;;;;;;;;;;;;;;5020216;28;19917;-48
2023/12/23 13:18:59;;;;;;;;;;;;;;;;;;5029975;28;19913;-49
2023/12/23 13:21:26;;;;;;;;;;;;;;;;;;5010543;28;19929;-49
2023/12/23 13:23:52;;;;;;;;;;;;;;;;;;5023622;28;19909;-48
2023/12/23 13:26:18;;;;;;;;;;;;;;;;;;5031233;28;20304;-48
2023/12/23 13:28:44;;;;;;;;;;;;;;;;;;5027737;28;20369;-48
2023/12/23 13:31:10;;;;;;;;;;;;;;;;;;5018006;28;20020;-49
2023/12/23 13:33:36;;;;;;;;;;;;;;;;;;5014243;28;19909;-48
2023/12/23 13:36:04;;;;;;;;;;;;;;;;;;5029251;28;19925;-48
2023/12/23 13:38:30;;;;;;;;;;;;;;;;;;5014139;28;19914;-49
2023/12/23 13:40:56;;;;;;;;;;;;;;;;;;5019928;28;19913;-48
2023/12/23 13:43:22;;;;;;;;;;;;;;;;;;5019024;28;19924;-47
2023/12/23 13:45:50;;;;;;;;;;;;;;;;;;5030107;28;20207;-48
2023/12/23 13:48:16;;;;;;;;;;;;;;;;;;5027742;28;19913;-51
2023/12/23 13:50:42;;;;;;;;;;;;;;;;;;5013944;28;20441;-48
2023/12/23 13:53:08;;;;;;;;;;;;;;;;;;5013999;28;19956;-48
2023/12/23 13:55:34;;;;;;;;;;;;;;;;;;5013893;28;20440;-48
2023/12/23 13:58:09;;;;;;;;;;;;;;;;;;5013812;28;20388;-48
2023/12/23 14:00:36;;;;;;;;;;;;;;;;;;5016916;28;19916;-49
2023/12/23 14:03:02;;;;;;;;;;;;;;;;;;5029422;28;19984;-48
2023/12/23 14:05:28;;;;;;;;;;;;;;;;;;5014645;28;19913;-48
2023/12/23 14:07:54;;;;;;;;;;;;;;;;;;5012313;28;19921;-48
2023/12/23 14:10:20;;;;;;;;;;;;;;;;;;5031982;28;19960;-49
2023/12/23 14:12:46;;;;;;;;;;;;;;;;;;5029758;28;19910;-48
2023/12/23 14:15:13;;;;;;;;;;;;;;;;;;5030389;28;19951;-48
2023/12/23 14:17:39;;;;;;;;;;;;;;;;;;5019291;28;20381;-50
2023/12/23 14:20:05;;;;;;;;;;;;;;;;;;5014761;28;19914;-52
2023/12/23 14:22:31;;;;;;;;;;;;;;;;;;5014722;28;19914;-48
2023/12/23 14:24:57;;;;;;;;;;;;;;;;;;5013366;28;19913;-49
2023/12/23 14:27:23;;;;;;;;;;;;;;;;;;5012304;28;20279;-48
2023/12/23 14:29:49;;;;;;;;;;;;;;;;;;5013267;28;19961;-50
2023/12/23 14:32:15;;;;;;;;;;;;;;;;;;5014120;28;20408;-48
2023/12/23 14:34:41;;;;;;;;;;;;;;;;;;5013274;28;19920;-48
2023/12/23 14:37:07;;;;;;;;;;;;;;;;;;5022532;28;19920;-48
2023/12/23 14:39:33;;;;;;;;;;;;;;;;;;5031792;28;19920;-50
2023/12/23 14:41:59;;;;;;;;;;;;;;;;;;5018214;28;19910;-48
2023/12/23 14:44:25;;;;;;;;;;;;;;;;;;5012781;28;19967;-47
2023/12/23 14:46:51;;;;;;;;;;;;;;;;;;5027404;28;19914;-51
2023/12/23 14:49:17;;;;;;;;;;;;;;;;;;5032234;28;19921;-49
2023/12/23 14:51:43;;;;;;;;;;;;;;;;;;5021314;28;19917;-53
2023/12/23 14:54:09;;;;;;;;;;;;;;;;;;5013913;28;19914;-49
2023/12/23 14:56:35;;;;;;;;;;;;;;;;;;5029734;28;19916;-48
2023/12/23 14:59:02;;;;;;;;;;;;;;;;;;5032515;28;19920;-51
2023/12/23 15:01:28;;;;;;;;;;;;;;;;;;5026369;28;19920;-52
2023/12/23 15:03:54;;;;;;;;;;;;;;;;;;5024611;28;20289;-48
2023/12/23 15:06:20;;;;;;;;;;;;;;;;;;5025353;28;19913;-48
2023/12/23 15:08:46;;;;;;;;;;;;;;;;;;5030910;28;19920;-49
2023/12/23 15:11:12;;;;;;;;;;;;;;;;;;5026223;28;20111;-49
2023/12/23 15:13:38;;;;;;;;;;;;;;;;;;5030579;28;19941;-49
2023/12/23 15:16:04;;;;;;;;;;;;;;;;;;5031225;28;19909;-49
2023/12/23 15:18:30;;;;;;;;;;;;;;;;;;5032515;28;19967;-48
2023/12/23 15:20:57;;;;;;;;;;;;;;;;;;5031777;28;19939;-49
2023/12/23 15:23:23;;;;;;;;;;;;;;;;;;5030354;28;20409;-50
2023/12/23 15:25:49;;;;;;;;;;;;;;;;;;5030890;28;19988;-51
2023/12/23 15:28:15;;;;;;;;;;;;;;;;;;5032216;28;19920;-50
2023/12/23 15:30:41;;;;;;;;;;;;;;;;;;5030859;28;19913;-50
2023/12/23 15:33:07;;;;;;;;;;;;;;;;;;5032198;28;19917;-54
2023/12/23 15:35:33;;;;;;;;;;;;;;;;;;5030237;28;20036;-48
2023/12/23 15:37:59;;;;;;;;;;;;;;;;;;5030500;28;19963;-48
2023/12/23 15:40:25;;;;;;;;;;;;;;;;;;5031566;28;19916;-56
2023/12/23 15:42:51;;;;;;;;;;;;;;;;;;5030412;28;20445;-51
2023/12/23 15:45:17;;;;;;;;;;;;;;;;;;5035683;28;19917;-49
2023/12/23 15:47:44;;;;;;;;;;;;;;;;;;5034983;28;20008;-49
2023/12/23 15:50:10;;;;;;;;;;;;;;;;;;5034878;28;19956;-49
2023/12/23 15:52:36;;;;;;;;;;;;;;;;;;5035982;28;20004;-50
2023/12/23 15:55:02;;;;;;;;;;;;;;;;;;5036031;28;19909;-50
2023/12/23 15:57:29;;;;;;;;;;;;;;;;;;5035897;28;19913;-48
2023/12/23 15:59:55;;;;;;;;;;;;;;;;;;5035886;28;19909;-49
2023/12/23 16:02:21;;;;;;;;;;;;;;;;;;5035945;28;19913;-52
2023/12/23 16:04:47;;;;;;;;;;;;;;;;;;5035636;28;20290;-54
2023/12/23 16:07:13;;;;;;;;;;;;;;;;;;5035985;28;19959;-50
2023/12/23 16:09:39;;;;;;;;;;;;;;;;;;5035637;28;19913;-49
2023/12/23 16:12:05;;;;;;;;;;;;;;;;;;5035754;28;20012;-52
2023/12/23 16:14:32;;;;;;;;;;;;;;;;;;5034184;28;19992;-48
2023/12/23 16:16:58;;;;;;;;;;;;;;;;;;5035468;28;19921;-50
2023/12/23 16:19:24;;;;;;;;;;;;;;;;;;5035612;28;19916;-51
2023/12/23 16:21:50;;;;;;;;;;;;;;;;;;5035594;28;20340;-57
2023/12/23 16:24:16;;;;;;;;;;;;;;;;;;5035348;28;19916;-51
2023/12/23 16:26:43;;;;;;;;;;;;;;;;;;5035213;28;19914;-49
2023/12/23 16:29:09;;;;;;;;;;;;;;;;;;5035167;28;19990;-51
2023/12/23 16:31:35;;;;;;;;;;;;;;;;;;5035333;28;19914;-47
2023/12/23 16:34:01;;;;;;;;;;;;;;;;;;5034474;28;19963;-49
2023/12/23 16:36:27;;;;;;;;;;;;;;;;;;5034530;28;20301;-48
2023/12/23 16:38:53;;;;;;;;;;;;;;;;;;5034770;28;19909;-48